Time;durP1;ratioP1;P1;durP2;ratioP2;P2;SDS_P1;SDS_P2;PMS_P1;PMS_P2;Temp;Humidity;BMP_temperature;BMP_pressure;BME280_temperature;BME280_humidity;BME280_pressure;Samples;Min_cycle;Max_cycle;Signal;HPM_P1;HPM_P2
2022/01/03 00:01:14;;;;;;;2.60;1.85;;;;;;;7.80;84.44;99671.16;8480297;33;20314;-73
2022/01/03 00:06:20;;;;;;;4.53;1.45;;;;;;;7.69;82.73;99661.34;8487355;33;20483;-74
2022/01/03 00:11:23;;;;;;;3.88;1.92;;;;;;;8.05;81.31;99696.75;8497106;33;20149;-74
2022/01/03 00:16:27;;;;;;;2.22;2.03;;;;;;;7.83;81.04;99689.63;8504496;33;20164;-74
2022/01/03 00:21:40;;;;;;;3.53;2.00;;;;;;;7.79;81.30;99710.44;8505704;33;21117;-74
2022/01/03 00:26:50;;;;;;;5.82;1.83;;;;;;;7.95;79.96;99710.03;8505023;33;20544;-74
2022/01/03 00:31:57;;;;;;;6.53;1.95;;;;;;;8.02;79.98;99699.69;8506556;33;20231;-75
2022/01/03 00:37:01;;;;;;;4.20;2.10;;;;;;;7.78;77.34;99726.56;8507091;33;20403;-74
2022/01/03 00:42:05;;;;;;;3.60;2.20;;;;;;;7.85;77.80;99747.38;8507398;33;20463;-74
2022/01/03 00:47:11;;;;;;;10.82;1.95;;;;;;;7.75;77.86;99733.03;8503656;33;20526;-75
2022/01/03 00:52:14;;;;;;;8.43;2.03;;;;;;;7.80;77.08;99727.31;8501256;33;20424;-74
2022/01/03 00:57:26;;;;;;;3.65;1.92;;;;;;;7.84;77.06;99767.03;8503142;33;20426;-74
2022/01/03 01:02:35;;;;;;;9.43;3.30;;;;;;;7.76;77.16;99741.88;8497126;33;21468;-74
2022/01/03 01:07:40;;;;;;;7.03;2.45;;;;;;;7.95;76.12;99745.66;8486741;33;20536;-76
2022/01/03 01:12:46;;;;;;;7.57;2.20;;;;;;;7.84;75.29;99763.50;8487395;33;20192;-76
2022/01/03 01:17:53;;;;;;;10.43;2.70;;;;;;;8.05;75.99;99759.13;8485056;33;21034;-76
2022/01/03 01:22:58;;;;;;;8.07;2.45;;;;;;;7.89;76.17;99774.69;8486127;33;20473;-75
2022/01/03 01:28:01;;;;;;;6.10;1.48;;;;;;;7.87;76.49;99780.19;8486875;33;20272;-76
2022/01/03 01:33:08;;;;;;;5.28;2.03;;;;;;;7.67;77.32;99776.41;8485566;33;20238;-75
2022/01/03 01:38:16;;;;;;;6.80;2.17;;;;;;;7.65;77.63;99794.41;8484323;33;21010;-75
2022/01/03 01:43:26;;;;;;;3.15;2.13;;;;;;;7.60;77.63;99812.63;8486634;33;21265;-75
2022/01/03 01:48:34;;;;;;;5.53;2.30;;;;;;;7.54;77.44;99798.84;8484943;33;20932;-76
2022/01/03 01:53:42;;;;;;;5.32;1.90;;;;;;;7.66;77.09;99806.78;8488383;33;20650;-75
2022/01/03 01:59:13;;;;;;;9.68;2.50;;;;;;;7.85;76.99;99800.84;8490089;33;20420;-75
2022/01/03 02:04:35;;;;;;;6.10;2.92;;;;;;;8.07;77.05;99816.03;8491432;33;20433;-75
2022/01/03 02:09:43;;;;;;;7.20;2.45;;;;;;;7.78;77.92;99820.16;8491729;33;20173;-75
2022/01/03 02:14:50;;;;;;;8.90;2.70;;;;;;;7.83;78.39;99826.84;8493099;33;20258;-75
2022/01/03 02:20:09;;;;;;;6.95;2.50;;;;;;;7.75;77.18;99829.25;8493537;33;20141;-75
2022/01/03 02:25:15;;;;;;;7.57;2.55;;;;;;;7.84;76.75;99823.19;8502948;33;20172;-75
2022/01/03 02:30:23;;;;;;;7.18;2.50;;;;;;;7.88;76.29;99847.88;8503715;33;20149;-75
2022/01/03 02:35:28;;;;;;;7.82;2.20;;;;;;;7.73;76.60;99852.59;8494054;33;20286;-75
2022/01/03 02:40:32;;;;;;;6.85;2.15;;;;;;;7.80;76.04;99858.31;8494580;33;20437;-75
2022/01/03 02:45:36;;;;;;;4.43;2.05;;;;;;;7.78;76.24;99846.88;8489656;33;20184;-75
2022/01/03 02:50:41;;;;;;;5.95;2.70;;;;;;;7.52;77.46;99862.28;8488883;33;20420;-75
2022/01/03 02:55:49;;;;;;;6.57;2.10;;;;;;;7.67;76.86;99840.56;8486621;33;20422;-75
2022/01/03 03:00:52;;;;;;;10.15;2.95;;;;;;;7.69;77.33;99845.78;8486932;33;20451;-75
2022/01/03 03:06:04;;;;;;;4.55;1.88;;;;;;;7.43;78.01;99854.00;8488752;33;20534;-75
2022/01/03 03:11:09;;;;;;;9.85;2.42;;;;;;;7.52;78.51;99854.28;8487995;33;20199;-75
2022/01/03 03:16:14;;;;;;;3.95;2.20;;;;;;;7.48;78.35;99856.31;8487868;33;20153;-75
2022/01/03 03:21:19;;;;;;;6.28;2.20;;;;;;;7.55;77.88;99846.00;8487204;33;20873;-75
2022/01/03 03:26:23;;;;;;;13.63;3.80;;;;;;;7.68;77.84;99858.31;8502068;33;20600;-75
2022/01/03 03:31:27;;;;;;;6.40;2.75;;;;;;;7.71;77.73;99854.56;8489802;33;20484;-75
2022/01/03 03:36:32;;;;;;;4.43;1.88;;;;;;;7.53;78.03;99854.13;8488534;33;20479;-74
2022/01/03 03:41:35;;;;;;;12.82;3.85;;;;;;;7.62;78.37;99869.47;8484417;33;21851;-75
2022/01/03 03:46:38;;;;;;;8.88;2.92;;;;;;;7.37;78.89;99864.28;8483338;33;20459;-77
2022/01/03 03:51:43;;;;;;;10.98;4.47;;;;;;;6.97;83.34;99868.16;8481712;33;21059;-75
2022/01/03 03:56:46;;;;;;;10.48;2.15;;;;;;;6.84;84.64;99853.97;8481132;33;20299;-76
2022/01/03 04:01:50;;;;;;;17.88;4.05;;;;;;;6.93;84.41;99857.78;8482588;33;21124;-75
2022/01/03 04:06:56;;;;;;;11.35;4.20;;;;;;;6.91;84.47;99867.72;8488425;33;20203;-76
2022/01/03 04:12:00;;;;;;;16.77;3.42;;;;;;;7.10;83.56;99856.53;8486537;33;20186;-76
2022/01/03 04:17:05;;;;;;;9.25;3.60;;;;;;;7.11;82.08;99853.75;8487452;33;20953;-76
2022/01/03 04:22:10;;;;;;;8.68;3.10;;;;;;;7.05;80.66;99865.75;8485965;33;20442;-75
2022/01/03 04:27:13;;;;;;;4.53;2.90;;;;;;;7.25;78.68;99866.06;8487080;33;21472;-75
2022/01/03 04:32:16;;;;;;;6.33;2.40;;;;;;;7.39;77.82;99857.84;8488054;33;20409;-76
2022/01/03 04:37:21;;;;;;;13.38;3.03;;;;;;;7.56;76.92;99845.03;8487419;33;20188;-76
2022/01/03 04:42:25;;;;;;;12.95;4.38;;;;;;;7.35;77.66;99866.22;8487641;33;20453;-77
2022/01/03 04:47:29;;;;;;;14.65;4.22;;;;;;;7.51;76.86;99864.09;8487264;33;21144;-76
2022/01/03 04:52:33;;;;;;;9.50;3.65;;;;;;;7.66;75.96;99880.78;8488296;33;20638;-75
2022/01/03 04:57:36;;;;;;;11.18;3.75;;;;;;;7.84;75.15;99865.13;8486888;33;20453;-75
2022/01/03 05:02:39;;;;;;;19.02;4.07;;;;;;;7.74;75.45;99856.97;8483607;33;20424;-75
2022/01/03 05:07:45;;;;;;;12.07;4.40;;;;;;;7.79;75.02;99862.84;8483851;33;20144;-75
2022/01/03 05:12:48;;;;;;;10.48;3.90;;;;;;;7.15;81.73;99875.75;8478683;33;20453;-75
2022/01/03 05:17:52;;;;;;;10.65;4.47;;;;;;;6.64;84.75;99884.78;8477711;33;21918;-75
2022/01/03 05:22:56;;;;;;;10.48;4.10;;;;;;;6.51;88.29;99889.31;8480509;33;20203;-75
2022/01/03 05:28:00;;;;;;;13.95;5.60;;;;;;;6.60;87.47;99886.81;8489748;33;20831;-75
2022/01/03 05:33:03;;;;;;;15.93;5.32;;;;;;;6.67;85.84;99881.06;8488893;33;20815;-75
2022/01/03 05:38:08;;;;;;;12.90;4.55;;;;;;;6.74;84.43;99861.78;8486619;33;20924;-75
2022/01/03 05:43:11;;;;;;;18.83;4.60;;;;;;;6.80;82.94;99857.81;8480885;33;20236;-75
2022/01/03 05:48:14;;;;;;;12.43;4.90;;;;;;;7.01;82.58;99871.44;8481323;33;20415;-74
2022/01/03 05:53:19;;;;;;;10.27;3.60;;;;;;;6.98;82.20;99890.34;8485056;33;20137;-75
2022/01/03 05:58:22;;;;;;;12.15;4.68;;;;;;;6.77;82.16;99844.69;8484784;33;20455;-75
2022/01/03 06:03:27;;;;;;;21.23;5.85;;;;;;;6.99;83.01;99871.56;8488691;33;20454;-74
2022/01/03 06:08:32;;;;;;;13.05;4.53;;;;;;;6.95;83.95;99878.06;8481583;33;21980;-75
2022/01/03 06:13:35;;;;;;;16.13;5.00;;;;;;;6.72;85.46;99885.09;8481920;33;21262;-74
2022/01/03 06:18:38;;;;;;;13.30;4.13;;;;;;;6.50;87.17;99869.78;8481982;33;20548;-74
2022/01/03 06:23:46;;;;;;;9.80;4.38;;;;;;;6.39;88.50;99873.22;8482838;33;20426;-74
2022/01/03 06:28:50;;;;;;;14.88;5.32;;;;;;;6.36;86.96;99878.78;8487788;33;20541;-74
2022/01/03 06:33:55;;;;;;;11.32;4.35;;;;;;;6.48;84.98;99868.19;8483360;33;20249;-75
2022/01/03 06:39:00;;;;;;;15.40;4.50;;;;;;;6.76;82.97;99869.69;8478637;33;20425;-75
2022/01/03 06:44:04;;;;;;;12.32;4.13;;;;;;;7.02;81.68;99879.34;8478680;33;20177;-75
2022/01/03 06:49:08;;;;;;;10.13;3.42;;;;;;;7.05;80.64;99872.91;8478418;33;20915;-76
2022/01/03 06:54:14;;;;;;;13.52;3.25;;;;;;;7.04;80.39;99884.56;8480342;33;20440;-75
2022/01/03 06:59:26;;;;;;;14.07;4.28;;;;;;;7.10;79.21;99860.06;8483407;33;20247;-76
2022/01/03 07:04:30;;;;;;;12.23;4.03;;;;;;;7.17;79.40;99866.66;8464978;33;20435;-75
2022/01/03 07:09:41;;;;;;;10.30;3.97;;;;;;;7.21;79.17;99867.25;8488792;33;20149;-75
2022/01/03 07:20:09;;;;;;;17.48;2.75;;;;;;;7.39;77.45;99875.72;8484793;33;21315;-75
2022/01/03 07:25:13;;;;;;;10.40;3.95;;;;;;;7.46;77.66;99863.56;8484301;33;20623;-75
2022/01/03 07:30:16;;;;;;;13.98;3.42;;;;;;;7.37;77.70;99875.81;8485043;33;20149;-75
2022/01/03 07:35:19;;;;;;;14.57;2.95;;;;;;;7.42;76.75;99872.81;8484034;33;20234;-75
2022/01/03 07:40:23;;;;;;;8.68;3.25;;;;;;;7.41;76.15;99911.19;8482144;33;20591;-75
2022/01/03 07:45:27;;;;;;;13.32;4.45;;;;;;;7.32;77.08;99882.47;8484471;33;20421;-75
2022/01/03 07:50:31;;;;;;;20.08;4.80;;;;;;;7.35;77.06;99882.25;8486332;33;20133;-75
2022/01/03 07:55:35;;;;;;;4.60;2.30;;;;;;;7.33;76.80;99874.38;8489223;33;20625;-75
2022/01/03 08:00:38;;;;;;;10.13;2.85;;;;;;;7.10;77.86;99868.06;8425301;33;20513;-75
2022/01/03 08:05:42;;;;;;;11.98;4.30;;;;;;;7.36;77.17;99887.50;8444364;33;20924;-75
2022/01/03 08:10:51;;;;;;;10.35;2.67;;;;;;;7.37;76.99;99867.81;8478713;33;20531;-74
2022/01/03 08:15:54;;;;;;;12.85;4.00;;;;;;;7.23;77.54;99903.59;8486589;33;20469;-73
2022/01/03 08:20:58;;;;;;;12.10;3.63;;;;;;;7.47;76.68;99867.97;8484719;33;20961;-73
2022/01/03 08:26:02;;;;;;;10.07;4.00;;;;;;;7.43;76.51;99869.16;8474764;33;20196;-76
2022/01/03 08:31:05;;;;;;;12.50;3.20;;;;;;;7.49;76.49;99872.25;8487660;33;20179;-74
2022/01/03 08:36:08;;;;;;;9.73;3.00;;;;;;;7.34;76.72;99869.88;8483523;33;20524;-73
2022/01/03 08:41:13;;;;;;;14.98;3.97;;;;;;;7.49;76.30;99874.06;8476793;33;20230;-74
2022/01/03 08:46:16;;;;;;;9.27;4.05;;;;;;;8.00;74.92;99879.00;8486881;33;20149;-76
2022/01/03 08:51:19;;;;;;;14.63;4.35;;;;;;;7.81;75.77;99886.75;8484103;33;20338;-75
2022/01/03 08:56:23;;;;;;;6.38;3.55;;;;;;;7.85;75.15;99885.56;8487096;33;20600;-75
2022/01/03 09:01:26;;;;;;;10.25;4.43;;;;;;;7.90;75.09;99880.72;8472202;33;21191;-75
2022/01/03 09:06:30;;;;;;;35.58;5.60;;;;;;;7.78;75.76;99890.53;8482937;33;20172;-75
2022/01/03 09:11:35;;;;;;;8.23;3.85;;;;;;;8.10;74.93;99880.00;8440741;33;20291;-76
2022/01/03 09:16:38;;;;;;;8.30;3.50;;;;;;;8.08;75.02;99891.78;8332764;33;20430;-75
2022/01/03 09:21:42;;;;;;;8.52;3.95;;;;;;;8.33;74.23;99896.03;8343216;33;20616;-75
2022/01/03 09:32:07;;;;;;;11.63;4.68;;;;;;;8.36;73.22;99880.63;8333483;33;20604;-76
2022/01/03 09:37:12;;;;;;;5.55;2.70;;;;;;;8.40;73.31;99905.31;8327002;33;22292;-76
2022/01/03 09:42:23;;;;;;;10.30;3.95;;;;;;;8.07;74.00;99869.53;8368959;33;20472;-75
2022/01/03 09:47:30;;;;;;;11.35;4.70;;;;;;;8.36;73.39;99880.63;8368229;33;21110;-76
2022/01/03 09:52:34;;;;;;;12.93;5.28;;;;;;;8.39;73.37;99858.09;8365986;33;20515;-75
2022/01/03 09:57:40;;;;;;;9.60;3.55;;;;;;;8.30;73.43;99843.63;8347354;33;20537;-75
2022/01/03 10:02:45;;;;;;;15.55;4.75;;;;;;;8.29;74.24;99841.09;8307710;34;20663;-75
2022/01/03 10:07:50;;;;;;;9.63;4.45;;;;;;;8.59;73.24;99829.75;8348355;33;20446;-75
2022/01/03 10:12:55;;;;;;;11.10;4.25;;;;;;;8.26;74.60;99841.34;8312271;34;20535;-75
2022/01/03 10:17:58;;;;;;;11.55;3.80;;;;;;;8.26;74.59;99827.97;8322229;34;20195;-75
2022/01/03 10:23:13;;;;;;;11.18;4.25;;;;;;;8.58;74.16;99828.91;8321973;34;20186;-75
2022/01/03 10:28:31;;;;;;;10.15;3.80;;;;;;;9.10;72.01;99847.84;8375108;33;20828;-75
2022/01/03 10:33:34;;;;;;;10.43;4.78;;;;;;;9.35;71.61;99851.13;8373408;33;20186;-75
2022/01/03 10:38:41;;;;;;;9.75;4.32;;;;;;;8.83;72.69;99848.28;8390226;33;20200;-75
2022/01/03 10:43:49;;;;;;;9.35;3.50;;;;;;;8.70;73.25;99834.25;8378331;33;20198;-75
2022/01/03 10:48:55;;;;;;;10.05;3.65;;;;;;;8.32;73.69;99830.13;8379003;33;20474;-75
2022/01/03 10:53:58;;;;;;;5.00;3.30;;;;;;;8.40;72.64;99838.41;8374945;33;20562;-75
2022/01/03 10:59:20;;;;;;;13.73;4.88;;;;;;;8.23;73.85;99822.81;8371556;33;20457;-75
2022/01/03 11:04:36;;;;;;;7.22;2.97;;;;;;;8.22;74.35;99831.84;8372667;33;20413;-75
2022/01/03 11:15:01;;;;;;;13.68;3.55;;;;;;;8.50;72.94;99826.00;8360772;33;20193;-75
2022/01/03 11:20:21;;;;;;;6.50;3.00;;;;;;;8.75;72.22;99795.38;8357801;33;20150;-75
2022/01/03 11:25:30;;;;;;;9.73;3.28;;;;;;;8.57;72.15;99807.59;8357665;33;20651;-75
2022/01/03 11:30:36;;;;;;;6.05;2.95;;;;;;;8.65;71.42;99812.34;8367481;33;20415;-75
2022/01/03 11:35:46;;;;;;;10.27;3.65;;;;;;;8.56;71.98;99779.16;8367688;33;20954;-75
2022/01/03 11:40:50;;;;;;;12.05;3.70;;;;;;;8.71;71.08;99785.91;8369016;33;20413;-75
2022/01/03 11:45:56;;;;;;;15.35;3.88;;;;;;;8.49;72.15;99777.94;8369969;33;20433;-75
2022/01/03 11:51:03;;;;;;;7.20;3.42;;;;;;;8.37;72.41;99775.25;8365713;33;20741;-74
2022/01/03 11:56:09;;;;;;;4.40;2.90;;;;;;;8.34;72.38;99772.00;8364230;33;21769;-75
2022/01/03 12:06:36;;;;;;;9.02;3.45;;;;;;;8.31;72.96;99748.13;8425588;33;20902;-75
2022/01/03 12:11:45;;;;;;;8.43;3.47;;;;;;;8.57;72.93;99754.91;8440929;33;20181;-74
2022/01/03 12:16:53;;;;;;;11.30;4.35;;;;;;;8.33;74.28;99754.22;8429419;33;20427;-75
2022/01/03 12:22:00;;;;;;;10.60;4.00;;;;;;;8.36;73.28;99760.19;8408615;33;20150;-75
2022/01/03 12:27:39;;;;;;;10.07;4.10;;;;;;;8.39;72.70;99751.91;8396317;33;20476;-75
2022/01/03 12:32:48;;;;;;;8.55;3.78;;;;;;;8.52;72.62;99740.22;8391150;33;20150;-75
2022/01/03 12:38:31;;;;;;;7.72;3.65;;;;;;;8.57;72.52;99729.97;8393797;33;20161;-76
2022/01/03 12:43:56;;;;;;;14.90;4.60;;;;;;;8.39;72.36;99727.81;8376112;33;20284;-75
2022/01/03 12:49:30;;;;;;;8.05;4.38;;;;;;;8.37;72.01;99723.56;8392272;33;20149;-76
2022/01/03 12:54:40;;;;;;;7.75;3.70;;;;;;;8.35;70.46;99715.66;8395492;33;20460;-74
2022/01/03 12:59:44;;;;;;;6.88;2.80;;;;;;;8.19;71.11;99699.16;8385771;33;20433;-74
2022/01/03 13:04:48;;;;;;;11.05;3.80;;;;;;;8.31;71.08;99703.50;8379594;33;20380;-74
2022/01/03 13:09:51;;;;;;;7.45;3.13;;;;;;;8.35;71.20;99693.41;8394599;33;21063;-75
2022/01/03 13:15:01;;;;;;;13.02;3.85;;;;;;;8.44;71.05;99687.28;8394141;33;20212;-75
2022/01/03 13:20:07;;;;;;;12.25;3.45;;;;;;;8.63;70.70;99672.38;8411191;33;20988;-75
2022/01/03 13:25:11;;;;;;;9.68;3.40;;;;;;;8.67;70.78;99674.69;8430472;33;20403;-74
2022/01/03 13:30:14;;;;;;;7.85;4.60;;;;;;;8.56;71.38;99672.91;8428598;33;20219;-74
2022/01/03 13:35:18;;;;;;;9.68;3.40;;;;;;;8.53;71.13;99653.56;8429380;33;20423;-74
2022/01/03 13:40:22;;;;;;;7.03;3.08;;;;;;;8.44;71.09;99659.66;8393739;33;20155;-75
2022/01/03 13:50:47;;;;;;;8.88;3.75;;;;;;;8.66;71.05;99648.03;8368622;33;20993;-75
2022/01/03 13:55:55;;;;;;;15.52;4.28;;;;;;;8.43;70.99;99642.75;8365340;33;20162;-75
2022/01/03 14:00:59;;;;;;;13.73;3.90;;;;;;;8.82;70.12;99657.31;8367344;33;20953;-75
2022/01/03 14:06:18;;;;;;;6.75;3.72;;;;;;;8.78;70.28;99631.78;8366275;33;20174;-75
2022/01/03 14:11:26;;;;;;;9.60;3.92;;;;;;;9.09;69.23;99636.31;8369849;33;20475;-76
2022/01/03 14:16:29;;;;;;;12.57;4.97;;;;;;;8.60;70.59;99626.16;8369999;33;20543;-75
2022/01/03 14:21:34;;;;;;;11.35;3.85;;;;;;;8.97;69.85;99614.97;8364799;33;21003;-75
2022/01/03 14:26:38;;;;;;;8.23;4.32;;;;;;;8.63;70.50;99611.66;8405581;33;20627;-75
2022/01/03 14:31:48;;;;;;;8.82;3.25;;;;;;;8.70;70.76;99622.72;8416214;33;20443;-75
2022/01/03 14:36:54;;;;;;;7.53;3.42;;;;;;;8.83;70.41;99607.25;8393830;33;20169;-75
2022/01/03 14:42:00;;;;;;;8.50;3.30;;;;;;;8.56;70.99;99603.31;8396627;33;20557;-75
2022/01/03 14:47:06;;;;;;;13.40;3.47;;;;;;;8.59;70.46;99581.63;8392181;33;20450;-76
2022/01/03 14:52:11;;;;;;;9.40;2.47;;;;;;;8.20;71.45;99595.66;8402394;33;20445;-75
2022/01/03 14:57:20;;;;;;;7.95;3.20;;;;;;;8.36;70.78;99591.59;8399406;33;21843;-75
2022/01/03 15:02:24;;;;;;;13.07;3.50;;;;;;;8.57;69.79;99572.88;8409937;33;20472;-75
2022/01/03 15:07:30;;;;;;;11.70;3.67;;;;;;;8.57;69.80;99580.91;8400022;33;20702;-75
2022/01/03 15:12:33;;;;;;;15.32;3.17;;;;;;;8.32;70.69;99590.13;8424799;33;20741;-75
2022/01/03 15:17:37;;;;;;;5.20;2.90;;;;;;;8.20;70.53;99574.25;8408686;33;20433;-75
2022/01/03 15:22:41;;;;;;;3.60;2.78;;;;;;;8.48;70.67;99572.84;8393996;33;20194;-75
2022/01/03 15:27:45;;;;;;;7.78;3.35;;;;;;;8.25;71.91;99562.19;8387931;33;21269;-75
2022/01/03 15:32:48;;;;;;;8.15;3.65;;;;;;;8.05;72.41;99550.50;8378060;33;20683;-75
2022/01/03 15:37:52;;;;;;;6.72;3.08;;;;;;;7.82;72.78;99556.94;8390899;33;20197;-75
2022/01/03 15:42:55;;;;;;;7.43;2.65;;;;;;;7.94;72.77;99551.41;8345592;33;20167;-75
2022/01/03 15:47:59;;;;;;;7.65;3.30;;;;;;;7.78;73.59;99550.97;8404071;33;20188;-74
2022/01/03 15:53:04;;;;;;;9.82;3.63;;;;;;;7.97;73.95;99555.63;8392778;33;20288;-75
2022/01/03 15:58:08;;;;;;;13.13;2.53;;;;;;;7.75;75.05;99563.75;8374791;33;20261;-74
2022/01/03 16:03:11;;;;;;;4.65;2.63;;;;;;;7.72;75.45;99555.00;8399807;33;21086;-74
2022/01/03 16:08:16;;;;;;;4.18;3.15;;;;;;;7.69;75.20;99555.25;8390688;33;20538;-75
2022/01/03 16:13:19;;;;;;;6.03;3.70;;;;;;;7.47;76.49;99555.31;8392092;33;20241;-74
2022/01/03 16:18:22;;;;;;;7.80;4.32;;;;;;;7.64;75.88;99556.59;8391299;33;21573;-75
2022/01/03 16:23:26;;;;;;;8.73;4.80;;;;;;;7.88;75.36;99551.91;8390989;33;20477;-76
2022/01/03 16:28:30;;;;;;;8.20;3.22;;;;;;;7.45;77.04;99546.56;8391345;33;20433;-76
2022/01/03 16:33:33;;;;;;;9.68;4.13;;;;;;;7.59;77.08;99540.09;8381500;33;20305;-75
2022/01/03 16:38:37;;;;;;;6.18;3.47;;;;;;;7.72;75.78;99536.28;8389147;33;20201;-75
2022/01/03 16:43:42;;;;;;;6.70;4.53;;;;;;;7.54;76.68;99524.44;8390873;33;20442;-75
2022/01/03 16:48:45;;;;;;;7.15;4.00;;;;;;;7.48;77.29;99525.78;8395199;33;20159;-75
2022/01/03 16:53:49;;;;;;;10.48;6.25;;;;;;;7.75;76.61;99504.94;8394899;33;20608;-74
2022/01/03 16:58:52;;;;;;;8.05;3.33;;;;;;;7.57;76.90;99502.81;8413631;33;20430;-76
2022/01/03 17:03:56;;;;;;;11.00;6.53;;;;;;;7.50;78.11;99485.59;8373794;33;21746;-76
2022/01/03 17:09:00;;;;;;;10.93;6.80;;;;;;;7.57;77.43;99484.13;8368276;33;20193;-76
2022/01/03 17:14:03;;;;;;;9.40;6.05;;;;;;;7.48;77.24;99490.19;8360769;33;20550;-76
2022/01/03 17:19:06;;;;;;;9.82;6.07;;;;;;;7.54;77.63;99475.47;8336495;34;20425;-76
2022/01/03 17:24:11;;;;;;;10.82;5.40;;;;;;;7.45;77.89;99461.06;8340079;34;20503;-76
2022/01/03 17:29:14;;;;;;;10.80;5.75;;;;;;;7.30;77.87;99451.66;8333350;34;20217;-75
2022/01/03 17:34:17;;;;;;;12.23;7.30;;;;;;;7.47;77.12;99437.75;8336700;34;20143;-75
2022/01/03 17:39:21;;;;;;;10.32;4.75;;;;;;;7.43;77.12;99446.97;8332456;34;20637;-75
2022/01/03 17:44:25;;;;;;;6.95;4.00;;;;;;;7.23;77.45;99451.28;8361559;33;20427;-75
2022/01/03 17:49:28;;;;;;;6.10;3.40;;;;;;;6.98;78.01;99439.09;8383332;33;20159;-75
2022/01/03 17:54:32;;;;;;;6.18;3.47;;;;;;;6.97;77.73;99440.06;8375674;33;20938;-74
2022/01/03 17:59:36;;;;;;;3.75;2.75;;;;;;;6.88;77.79;99473.69;8376179;33;20999;-74
2022/01/03 18:04:41;;;;;;;4.70;2.80;;;;;;;6.91;77.74;99435.22;8378846;33;20468;-75
2022/01/03 18:09:46;;;;;;;2.88;1.90;;;;;;;6.83;77.30;99420.66;8369529;33;20462;-75
2022/01/03 18:14:49;;;;;;;3.78;2.47;;;;;;;6.68;77.61;99435.22;8395176;33;20151;-73
2022/01/03 18:19:52;;;;;;;5.47;2.83;;;;;;;6.93;77.00;99425.25;8400386;33;20239;-76
2022/01/03 18:24:56;;;;;;;4.50;3.25;;;;;;;6.96;76.45;99407.16;8392210;33;20151;-75
2022/01/03 18:29:59;;;;;;;2.20;2.00;;;;;;;7.05;76.11;99413.59;8397862;33;20450;-75
2022/01/03 18:35:03;;;;;;;6.93;2.85;;;;;;;6.95;76.14;99401.97;8410622;33;20453;-74
2022/01/03 18:40:10;;;;;;;4.13;3.20;;;;;;;6.90;76.63;99409.50;8432933;33;22019;-76
2022/01/03 18:45:13;;;;;;;5.28;3.25;;;;;;;6.89;76.80;99408.66;8435944;33;20776;-76
2022/01/03 18:50:16;;;;;;;7.53;4.50;;;;;;;6.88;76.70;99403.44;8432115;33;20433;-74
2022/01/03 18:55:22;;;;;;;7.05;3.75;;;;;;;6.85;77.42;99409.84;8428866;33;20433;-76
2022/01/03 19:00:28;;;;;;;3.75;2.00;;;;;;;6.62;77.87;99375.19;8425415;33;20581;-75
2022/01/03 19:05:31;;;;;;;7.35;3.70;;;;;;;6.89;77.48;99392.63;8424677;33;20136;-74
2022/01/03 19:10:35;;;;;;;5.38;3.30;;;;;;;7.16;76.81;99397.53;8424064;33;20616;-75
2022/01/03 19:15:44;;;;;;;5.82;3.47;;;;;;;6.93;77.41;99380.72;8426700;33;20503;-74
2022/01/03 19:20:47;;;;;;;7.90;4.95;;;;;;;6.83;78.12;99391.28;8427500;33;20200;-74
2022/01/03 19:25:51;;;;;;;9.23;4.53;;;;;;;6.88;78.07;99379.41;8404513;33;20137;-77
2022/01/03 19:30:54;;;;;;;7.13;4.82;;;;;;;6.87;78.23;99375.00;8376096;33;20422;-75
2022/01/03 19:41:20;;;;;;;11.68;6.50;;;;;;;7.14;77.96;99337.22;8385555;33;21890;-74
2022/01/03 19:46:25;;;;;;;8.95;6.00;;;;;;;7.27;77.18;99340.56;8376586;33;20221;-74
2022/01/03 19:51:28;;;;;;;8.77;4.78;;;;;;;7.06;77.49;99344.03;8382386;33;20277;-76
2022/01/03 19:56:34;;;;;;;7.80;5.10;;;;;;;7.02;78.21;99331.06;8376562;33;20138;-75
2022/01/03 20:01:38;;;;;;;9.50;5.13;;;;;;;7.14;77.44;99335.38;8375166;33;20460;-76
2022/01/03 20:06:44;;;;;;;10.18;5.32;;;;;;;7.21;77.52;99325.91;8375965;33;20510;-74
2022/01/03 20:11:48;;;;;;;11.27;5.50;;;;;;;7.14;77.50;99322.03;8386671;33;20142;-75
2022/01/03 20:16:51;;;;;;;11.43;6.40;;;;;;;7.33;76.47;99336.53;8376225;33;22038;-75
2022/01/03 20:21:55;;;;;;;10.68;6.60;;;;;;;7.40;76.55;99324.31;8382268;33;20468;-74
2022/01/03 20:26:59;;;;;;;12.27;6.90;;;;;;;7.11;77.89;99340.16;8382760;33;20153;-74
2022/01/03 20:32:08;;;;;;;13.23;7.78;;;;;;;7.16;77.63;99328.09;8390141;33;20403;-73
2022/01/03 20:37:12;;;;;;;12.63;8.00;;;;;;;7.00;77.96;99343.72;8389789;33;20438;-74
2022/01/03 20:42:16;;;;;;;14.15;7.18;;;;;;;6.93;78.48;99326.47;8387856;33;20449;-74
2022/01/03 20:47:19;;;;;;;12.43;8.23;;;;;;;7.16;78.01;99333.44;8423170;33;20439;-76
2022/01/03 20:52:22;;;;;;;12.43;7.45;;;;;;;7.08;77.92;99325.22;8452454;33;20174;-76
2022/01/03 20:57:28;;;;;;;16.73;9.25;;;;;;;7.00;78.42;99323.19;8453814;33;20288;-76
2022/01/03 21:02:31;;;;;;;16.42;9.18;;;;;;;7.03;78.53;99306.06;8444666;33;20936;-75
2022/01/03 21:07:35;;;;;;;15.93;9.15;;;;;;;7.26;77.72;99293.44;8445563;33;20759;-76
2022/01/03 21:12:40;;;;;;;17.88;9.93;;;;;;;6.89;78.82;99283.19;8437007;33;20998;-76
2022/01/03 21:17:44;;;;;;;12.80;8.48;;;;;;;7.02;78.36;99291.00;8410510;33;20984;-76
2022/01/03 21:22:47;;;;;;;19.00;10.27;;;;;;;6.97;78.87;99277.22;8403010;33;20332;-77
2022/01/03 21:27:51;;;;;;;19.83;10.05;;;;;;;7.05;78.76;99269.41;8412324;33;20235;-76
2022/01/03 21:32:54;;;;;;;17.92;8.57;;;;;;;6.75;79.81;99272.78;8400943;33;20459;-76
2022/01/03 21:37:59;;;;;;;17.92;9.25;;;;;;;6.73;80.36;99259.56;8349797;33;20458;-75
2022/01/03 21:43:04;;;;;;;14.90;8.00;;;;;;;6.74;80.97;99257.72;8341717;33;20192;-76
2022/01/03 21:48:07;;;;;;;14.00;7.28;;;;;;;6.83;79.59;99256.97;8346110;33;20151;-75
2022/01/03 21:53:11;;;;;;;19.67;10.05;;;;;;;6.83;80.17;99238.28;8336649;33;20568;-75
2022/01/03 21:58:15;;;;;;;19.73;9.45;;;;;;;6.83;80.07;99249.81;8364676;33;20616;-74
2022/01/03 22:03:19;;;;;;;21.67;10.60;;;;;;;6.87;79.98;99236.22;8353081;33;20444;-75
2022/01/03 22:08:22;;;;;;;18.50;9.23;;;;;;;6.90;80.06;99233.31;8380236;33;20345;-74
2022/01/03 22:13:26;;;;;;;18.40;9.85;;;;;;;6.74;80.54;99239.03;8349925;33;20156;-75
2022/01/03 22:18:29;;;;;;;18.65;9.82;;;;;;;6.85;79.49;99230.97;8367120;33;20591;-76
2022/01/03 22:23:32;;;;;;;17.05;10.02;;;;;;;6.91;79.76;99221.63;8353536;33;20424;-76
2022/01/03 22:28:37;;;;;;;18.90;10.07;;;;;;;7.06;78.94;99207.00;8345755;33;20419;-76
2022/01/03 22:33:40;;;;;;;20.67;9.60;;;;;;;6.76;79.72;99208.59;8349985;33;21261;-76
2022/01/03 22:38:43;;;;;;;18.73;9.77;;;;;;;7.03;79.00;99209.94;8346389;33;20420;-76
2022/01/03 22:43:48;;;;;;;16.27;8.73;;;;;;;6.89;79.37;99194.25;8335376;33;21129;-76
2022/01/03 22:48:51;;;;;;;18.88;10.70;;;;;;;6.92;79.61;99189.50;8335823;33;20692;-77
2022/01/03 22:53:54;;;;;;;18.88;10.55;;;;;;;7.04;78.96;99174.25;8380221;33;20536;-76
2022/01/03 22:58:58;;;;;;;22.40;11.27;;;;;;;7.10;78.73;99170.19;8404957;33;20552;-76
2022/01/03 23:04:02;;;;;;;22.55;10.43;;;;;;;7.04;79.13;99164.41;8425366;33;20436;-76
2022/01/03 23:09:05;;;;;;;21.67;10.40;;;;;;;7.01;78.76;99171.84;8378513;33;20818;-75
2022/01/03 23:14:09;;;;;;;19.83;9.18;;;;;;;6.95;78.86;99164.38;8379691;33;20190;-76
2022/01/03 23:19:13;;;;;;;22.63;11.82;;;;;;;7.18;78.68;99141.00;8373019;33;20464;-75
2022/01/03 23:24:16;;;;;;;17.42;9.35;;;;;;;7.20;78.47;99142.56;8364742;33;20147;-76
2022/01/03 23:29:20;;;;;;;18.45;10.13;;;;;;;7.23;78.56;99136.97;8368803;33;20186;-76
2022/01/03 23:34:23;;;;;;;21.00;10.38;;;;;;;7.20;78.69;99126.53;8369371;33;20440;-76
2022/01/03 23:39:26;;;;;;;21.73;11.85;;;;;;;7.34;77.98;99124.50;8373429;33;20461;-76
2022/01/03 23:44:33;;;;;;;19.35;9.15;;;;;;;7.04;79.03;99108.34;8373436;33;20463;-76
2022/01/03 23:49:36;;;;;;;19.77;10.70;;;;;;;7.06;79.35;99105.53;8368376;33;20142;-75
2022/01/03 23:54:39;;;;;;;20.42;10.68;;;;;;;6.93;79.61;99100.41;8368004;33;20147;-75
2022/01/03 23:59:43;;;;;;;22.05;10.70;;;;;;;7.18;79.28;99090.28;8369633;33;20457;-75
